sensor_id;sensor_type;location;lat;lon;timestamp;pressure;altitude;pressure_sealevel;temperature;humidity
30708;BME280;17458;48.958;8.284;2023-08-01T00:02:33;99230.63;;;21.49;78.61
30708;BME280;17458;48.958;8.284;2023-08-01T00:05:18;99221.56;;;21.56;78.54
30708;BME280;17458;48.958;8.284;2023-08-01T00:08:01;99209.84;;;21.58;77.73
30708;BME280;17458;48.958;8.284;2023-08-01T00:10:46;99196.31;;;21.60;78.10
30708;BME280;17458;48.958;8.284;2023-08-01T00:13:31;99184.88;;;21.37;79.38
30708;BME280;17458;48.958;8.284;2023-08-01T00:16:15;99176.97;;;21.18;79.57
30708;BME280;17458;48.958;8.284;2023-08-01T00:18:59;99156.78;;;21.50;78.40
30708;BME280;17458;48.958;8.284;2023-08-01T00:21:43;99143.41;;;21.42;79.23
30708;BME280;17458;48.958;8.284;2023-08-01T00:24:27;99135.13;;;21.54;78.70
30708;BME280;17458;48.958;8.284;2023-08-01T00:27:11;99143.13;;;21.62;78.67
30708;BME280;17458;48.958;8.284;2023-08-01T00:29:55;99140.34;;;21.68;78.24
30708;BME280;17458;48.958;8.284;2023-08-01T00:32:39;99137.88;;;21.51;79.33
30708;BME280;17458;48.958;8.284;2023-08-01T00:35:23;99135.31;;;21.42;79.97
30708;BME280;17458;48.958;8.284;2023-08-01T00:38:07;99145.19;;;21.43;79.73
30708;BME280;17458;48.958;8.284;2023-08-01T00:40:50;99160.75;;;21.23;80.36
30708;BME280;17458;48.958;8.284;2023-08-01T00:43:34;99178.03;;;21.05;81.76
30708;BME280;17458;48.958;8.284;2023-08-01T00:46:19;99179.88;;;20.99;82.70
30708;BME280;17458;48.958;8.284;2023-08-01T00:49:03;99181.66;;;21.03;81.97
30708;BME280;17458;48.958;8.284;2023-08-01T00:51:47;99196.22;;;20.86;82.68
30708;BME280;17458;48.958;8.284;2023-08-01T00:54:32;99184.41;;;20.94;82.46
30708;BME280;17458;48.958;8.284;2023-08-01T00:57:20;99193.06;;;20.31;84.46
30708;BME280;17458;48.958;8.284;2023-08-01T01:00:04;99194.78;;;20.46;84.43
30708;BME280;17458;48.958;8.284;2023-08-01T01:02:48;99186.72;;;20.44;84.47
30708;BME280;17458;48.958;8.284;2023-08-01T01:05:36;99166.09;;;20.33;85.14
30708;BME280;17458;48.958;8.284;2023-08-01T01:08:20;99146.50;;;20.11;87.23
30708;BME280;17458;48.958;8.284;2023-08-01T01:11:05;99136.56;;;20.17;86.01
30708;BME280;17458;48.958;8.284;2023-08-01T01:13:49;99143.59;;;20.38;84.84
30708;BME280;17458;48.958;8.284;2023-08-01T01:16:36;99158.00;;;20.34;85.69
30708;BME280;17458;48.958;8.284;2023-08-01T01:19:21;99125.66;;;20.33;85.41
30708;BME280;17458;48.958;8.284;2023-08-01T01:22:06;99129.38;;;20.18;86.62
30708;BME280;17458;48.958;8.284;2023-08-01T01:24:52;99114.66;;;20.59;85.08
30708;BME280;17458;48.958;8.284;2023-08-01T01:27:37;99117.56;;;20.36;85.90
30708;BME280;17458;48.958;8.284;2023-08-01T01:30:22;99112.97;;;20.48;85.22
30708;BME280;17458;48.958;8.284;2023-08-01T01:33:06;99101.22;;;20.52;84.51
30708;BME280;17458;48.958;8.284;2023-08-01T01:35:50;99115.75;;;20.38;85.16
30708;BME280;17458;48.958;8.284;2023-08-01T01:38:34;99090.56;;;20.39;85.91
30708;BME280;17458;48.958;8.284;2023-08-01T01:41:18;99083.41;;;20.35;85.18
30708;BME280;17458;48.958;8.284;2023-08-01T01:44:02;99084.28;;;20.38;85.22
30708;BME280;17458;48.958;8.284;2023-08-01T01:46:46;99082.38;;;20.49;85.56
30708;BME280;17458;48.958;8.284;2023-08-01T01:49:33;99083.59;;;20.10;88.25
30708;BME280;17458;48.958;8.284;2023-08-01T01:52:17;99078.94;;;20.31;87.41
30708;BME280;17458;48.958;8.284;2023-08-01T01:55:01;99088.88;;;20.26;85.99
30708;BME280;17458;48.958;8.284;2023-08-01T01:57:45;99093.38;;;20.24;86.34
30708;BME280;17458;48.958;8.284;2023-08-01T02:00:29;99090.63;;;20.28;87.13
30708;BME280;17458;48.958;8.284;2023-08-01T02:03:13;99084.22;;;20.47;85.83
30708;BME280;17458;48.958;8.284;2023-08-01T02:05:57;99068.78;;;20.60;84.44
30708;BME280;17458;48.958;8.284;2023-08-01T02:08:41;99071.66;;;20.43;84.87
30708;BME280;17458;48.958;8.284;2023-08-01T02:11:25;99069.72;;;20.58;84.20
30708;BME280;17458;48.958;8.284;2023-08-01T02:14:09;99062.88;;;20.20;85.68
30708;BME280;17458;48.958;8.284;2023-08-01T02:16:53;99068.09;;;20.38;84.62
30708;BME280;17458;48.958;8.284;2023-08-01T02:19:37;99059.69;;;20.69;82.81
30708;BME280;17458;48.958;8.284;2023-08-01T02:22:24;99062.34;;;20.75;82.24
30708;BME280;17458;48.958;8.284;2023-08-01T02:25:08;99064.31;;;20.59;82.19
30708;BME280;17458;48.958;8.284;2023-08-01T02:27:52;99059.41;;;20.92;81.11
30708;BME280;17458;48.958;8.284;2023-08-01T02:30:36;99050.81;;;20.58;82.55
30708;BME280;17458;48.958;8.284;2023-08-01T02:33:20;99046.19;;;20.70;81.76
30708;BME280;17458;48.958;8.284;2023-08-01T02:36:04;99046.91;;;20.86;80.53
30708;BME280;17458;48.958;8.284;2023-08-01T02:38:48;99039.94;;;20.64;81.97
30708;BME280;17458;48.958;8.284;2023-08-01T02:41:32;99037.94;;;20.82;80.67
30708;BME280;17458;48.958;8.284;2023-08-01T02:44:16;99047.59;;;21.03;80.02
30708;BME280;17458;48.958;8.284;2023-08-01T02:47:00;99042.47;;;20.80;81.44
30708;BME280;17458;48.958;8.284;2023-08-01T02:49:44;99045.63;;;21.14;79.67
30708;BME280;17458;48.958;8.284;2023-08-01T02:52:28;99040.47;;;20.95;80.12
30708;BME280;17458;48.958;8.284;2023-08-01T02:55:12;99039.78;;;20.79;80.86
30708;BME280;17458;48.958;8.284;2023-08-01T02:57:56;99054.16;;;20.81;81.39
30708;BME280;17458;48.958;8.284;2023-08-01T03:00:40;99050.34;;;20.97;80.12
30708;BME280;17458;48.958;8.284;2023-08-01T03:03:24;99043.31;;;20.84;80.38
30708;BME280;17458;48.958;8.284;2023-08-01T03:06:08;99039.78;;;20.79;80.05
30708;BME280;17458;48.958;8.284;2023-08-01T03:08:52;99030.59;;;20.94;79.59
30708;BME280;17458;48.958;8.284;2023-08-01T03:11:36;99036.22;;;20.77;80.87
30708;BME280;17458;48.958;8.284;2023-08-01T03:14:20;99034.44;;;20.77;80.71
30708;BME280;17458;48.958;8.284;2023-08-01T03:17:05;98997.81;;;20.53;81.70
30708;BME280;17458;48.958;8.284;2023-08-01T03:19:48;98982.34;;;20.69;81.61
30708;BME280;17458;48.958;8.284;2023-08-01T03:22:33;98974.41;;;20.59;82.02
30708;BME280;17458;48.958;8.284;2023-08-01T03:25:16;98977.31;;;20.40;82.17
30708;BME280;17458;48.958;8.284;2023-08-01T03:28:00;98950.41;;;20.33;83.92
30708;BME280;17458;48.958;8.284;2023-08-01T03:30:45;98933.34;;;20.34;83.68
30708;BME280;17458;48.958;8.284;2023-08-01T03:33:29;98910.91;;;20.30;83.77
30708;BME280;17458;48.958;8.284;2023-08-01T03:36:13;98911.66;;;20.44;83.55
30708;BME280;17458;48.958;8.284;2023-08-01T03:38:58;98941.31;;;20.46;82.58
30708;BME280;17458;48.958;8.284;2023-08-01T03:41:42;98951.88;;;20.63;81.65
30708;BME280;17458;48.958;8.284;2023-08-01T03:44:26;98963.66;;;20.54;81.99
30708;BME280;17458;48.958;8.284;2023-08-01T03:47:10;98949.19;;;20.61;81.64
30708;BME280;17458;48.958;8.284;2023-08-01T03:49:54;98940.47;;;20.39;82.53
30708;BME280;17458;48.958;8.284;2023-08-01T03:52:38;98959.31;;;20.41;82.84
30708;BME280;17458;48.958;8.284;2023-08-01T03:55:22;98951.25;;;20.41;82.51
30708;BME280;17458;48.958;8.284;2023-08-01T03:58:06;98964.44;;;20.64;80.62
30708;BME280;17458;48.958;8.284;2023-08-01T04:00:50;98967.09;;;20.65;80.29
30708;BME280;17458;48.958;8.284;2023-08-01T04:03:34;98971.91;;;21.09;78.83
30708;BME280;17458;48.958;8.284;2023-08-01T04:06:18;98962.88;;;21.12;78.11
30708;BME280;17458;48.958;8.284;2023-08-01T04:09:02;98953.31;;;20.90;79.17
30708;BME280;17458;48.958;8.284;2023-08-01T04:11:46;98972.47;;;20.70;79.86
30708;BME280;17458;48.958;8.284;2023-08-01T04:14:30;98967.56;;;20.99;78.58
30708;BME280;17458;48.958;8.284;2023-08-01T04:17:14;98988.03;;;21.15;78.54
30708;BME280;17458;48.958;8.284;2023-08-01T04:19:58;98993.81;;;20.88;79.62
30708;BME280;17458;48.958;8.284;2023-08-01T04:22:42;98994.88;;;20.76;80.21
30708;BME280;17458;48.958;8.284;2023-08-01T04:25:27;98972.50;;;20.65;80.48
30708;BME280;17458;48.958;8.284;2023-08-01T04:28:11;98965.09;;;20.82;80.72
30708;BME280;17458;48.958;8.284;2023-08-01T04:30:55;98960.00;;;20.61;80.95
30708;BME280;17458;48.958;8.284;2023-08-01T04:33:39;98970.25;;;21.01;79.40
30708;BME280;17458;48.958;8.284;2023-08-01T04:36:23;98969.03;;;20.56;81.56
30708;BME280;17458;48.958;8.284;2023-08-01T04:39:07;98982.88;;;20.99;79.24
30708;BME280;17458;48.958;8.284;2023-08-01T04:41:50;98997.28;;;20.98;79.29
30708;BME280;17458;48.958;8.284;2023-08-01T04:44:34;98991.03;;;20.93;79.82
30708;BME280;17458;48.958;8.284;2023-08-01T04:47:19;98985.38;;;21.12;78.26
30708;BME280;17458;48.958;8.284;2023-08-01T04:50:03;98969.22;;;21.09;78.81
30708;BME280;17458;48.958;8.284;2023-08-01T04:52:47;98957.88;;;20.84;80.16
30708;BME280;17458;48.958;8.284;2023-08-01T04:55:31;98956.25;;;20.71;80.83
30708;BME280;17458;48.958;8.284;2023-08-01T04:58:16;98962.66;;;20.63;82.06
30708;BME280;17458;48.958;8.284;2023-08-01T05:01:00;98949.06;;;20.72;81.54
30708;BME280;17458;48.958;8.284;2023-08-01T05:03:43;98941.28;;;20.47;82.19
30708;BME280;17458;48.958;8.284;2023-08-01T05:06:27;98931.81;;;20.83;80.37
30708;BME280;17458;48.958;8.284;2023-08-01T05:09:11;98948.34;;;20.58;81.72
30708;BME280;17458;48.958;8.284;2023-08-01T05:11:55;98931.97;;;20.73;80.34
30708;BME280;17458;48.958;8.284;2023-08-01T05:14:39;98941.88;;;20.71;81.05
30708;BME280;17458;48.958;8.284;2023-08-01T05:17:23;98929.22;;;20.77;80.01
30708;BME280;17458;48.958;8.284;2023-08-01T05:20:08;98918.25;;;20.90;79.02
30708;BME280;17458;48.958;8.284;2023-08-01T05:22:52;98939.25;;;20.65;79.63
30708;BME280;17458;48.958;8.284;2023-08-01T05:25:36;98943.44;;;20.88;79.63
30708;BME280;17458;48.958;8.284;2023-08-01T05:28:20;98950.31;;;20.43;80.84
30708;BME280;17458;48.958;8.284;2023-08-01T05:31:04;98964.28;;;20.77;79.32
30708;BME280;17458;48.958;8.284;2023-08-01T05:33:48;98961.88;;;20.53;79.94
30708;BME280;17458;48.958;8.284;2023-08-01T05:36:32;98967.81;;;20.81;78.98
30708;BME280;17458;48.958;8.284;2023-08-01T05:39:16;98965.75;;;21.00;78.61
30708;BME280;17458;48.958;8.284;2023-08-01T05:42:00;98971.50;;;20.74;79.02
30708;BME280;17458;48.958;8.284;2023-08-01T05:44:44;98988.25;;;20.99;78.71
30708;BME280;17458;48.958;8.284;2023-08-01T05:47:28;98998.22;;;20.92;78.28
30708;BME280;17458;48.958;8.284;2023-08-01T05:50:13;99007.19;;;20.96;78.89
30708;BME280;17458;48.958;8.284;2023-08-01T05:52:56;99005.72;;;20.69;80.25
30708;BME280;17458;48.958;8.284;2023-08-01T05:55:41;99012.00;;;20.72;80.21
30708;BME280;17458;48.958;8.284;2023-08-01T05:58:25;99014.84;;;20.59;81.03
30708;BME280;17458;48.958;8.284;2023-08-01T06:01:10;99008.78;;;20.38;83.36
30708;BME280;17458;48.958;8.284;2023-08-01T06:03:55;99006.19;;;20.28;84.69
30708;BME280;17458;48.958;8.284;2023-08-01T06:06:39;99004.81;;;19.81;87.04
30708;BME280;17458;48.958;8.284;2023-08-01T06:09:23;98993.88;;;19.99;87.81
30708;BME280;17458;48.958;8.284;2023-08-01T06:12:07;98983.38;;;19.70;89.69
30708;BME280;17458;48.958;8.284;2023-08-01T06:14:51;98985.38;;;19.39;92.49
30708;BME280;17458;48.958;8.284;2023-08-01T06:17:36;98974.69;;;19.30;92.76
30708;BME280;17458;48.958;8.284;2023-08-01T06:20:19;98969.13;;;19.55;90.79
30708;BME280;17458;48.958;8.284;2023-08-01T06:23:03;98953.94;;;19.43;89.23
30708;BME280;17458;48.958;8.284;2023-08-01T06:25:47;98952.91;;;19.64;88.87
30708;BME280;17458;48.958;8.284;2023-08-01T06:28:31;98962.00;;;19.47;90.02
30708;BME280;17458;48.958;8.284;2023-08-01T06:31:15;98966.41;;;19.59;88.85
30708;BME280;17458;48.958;8.284;2023-08-01T06:33:59;98974.38;;;19.73;89.17
30708;BME280;17458;48.958;8.284;2023-08-01T06:36:43;98994.25;;;19.60;89.51
30708;BME280;17458;48.958;8.284;2023-08-01T06:39:27;98976.94;;;19.85;89.17
30708;BME280;17458;48.958;8.284;2023-08-01T06:42:11;98959.09;;;19.75;89.03
30708;BME280;17458;48.958;8.284;2023-08-01T06:44:55;98947.41;;;19.76;90.00
30708;BME280;17458;48.958;8.284;2023-08-01T06:47:39;98957.91;;;20.05;88.69
30708;BME280;17458;48.958;8.284;2023-08-01T06:50:23;98947.28;;;19.91;88.83
30708;BME280;17458;48.958;8.284;2023-08-01T06:53:07;98941.78;;;19.99;87.84
30708;BME280;17458;48.958;8.284;2023-08-01T06:55:52;98953.59;;;19.89;88.79
30708;BME280;17458;48.958;8.284;2023-08-01T06:58:36;98957.34;;;19.71;90.73
30708;BME280;17458;48.958;8.284;2023-08-01T07:01:20;98954.38;;;19.98;89.86
30708;BME280;17458;48.958;8.284;2023-08-01T07:04:04;98957.22;;;19.83;89.14
30708;BME280;17458;48.958;8.284;2023-08-01T07:06:48;98960.00;;;19.72;91.00
30708;BME280;17458;48.958;8.284;2023-08-01T07:09:32;98962.69;;;19.74;92.03
30708;BME280;17458;48.958;8.284;2023-08-01T07:12:16;98962.72;;;19.69;91.79
30708;BME280;17458;48.958;8.284;2023-08-01T07:14:59;98967.09;;;19.82;91.12
30708;BME280;17458;48.958;8.284;2023-08-01T07:17:43;98959.84;;;19.91;91.37
30708;BME280;17458;48.958;8.284;2023-08-01T07:20:27;98953.75;;;19.70;92.96
30708;BME280;17458;48.958;8.284;2023-08-01T07:23:11;98978.59;;;20.01;90.45
30708;BME280;17458;48.958;8.284;2023-08-01T07:25:55;98961.28;;;20.22;89.29
30708;BME280;17458;48.958;8.284;2023-08-01T07:28:39;98957.31;;;19.74;91.05
30708;BME280;17458;48.958;8.284;2023-08-01T07:31:23;98978.91;;;19.66;91.46
30708;BME280;17458;48.958;8.284;2023-08-01T07:34:07;98982.41;;;19.79;91.84
30708;BME280;17458;48.958;8.284;2023-08-01T07:36:51;98972.41;;;19.92;90.30
30708;BME280;17458;48.958;8.284;2023-08-01T07:39:35;98991.09;;;20.08;89.41
30708;BME280;17458;48.958;8.284;2023-08-01T07:42:19;98992.88;;;20.08;89.77
30708;BME280;17458;48.958;8.284;2023-08-01T07:45:04;98989.38;;;20.03;89.36
30708;BME280;17458;48.958;8.284;2023-08-01T07:47:48;98992.03;;;20.06;88.74
30708;BME280;17458;48.958;8.284;2023-08-01T07:50:32;98993.00;;;19.96;90.22
30708;BME280;17458;48.958;8.284;2023-08-01T07:53:16;98985.69;;;20.08;88.74
30708;BME280;17458;48.958;8.284;2023-08-01T07:56:00;99010.75;;;20.20;88.02
30708;BME280;17458;48.958;8.284;2023-08-01T07:58:46;99008.13;;;20.12;88.51
30708;BME280;17458;48.958;8.284;2023-08-01T08:01:30;98995.69;;;19.97;89.37
30708;BME280;17458;48.958;8.284;2023-08-01T08:04:14;98991.16;;;20.02;91.25
30708;BME280;17458;48.958;8.284;2023-08-01T08:06:58;98975.25;;;19.75;91.82
30708;BME280;17458;48.958;8.284;2023-08-01T08:09:43;98990.63;;;19.61;93.09
30708;BME280;17458;48.958;8.284;2023-08-01T08:12:27;98984.38;;;19.57;92.87
30708;BME280;17458;48.958;8.284;2023-08-01T08:15:12;98999.38;;;19.87;93.13
30708;BME280;17458;48.958;8.284;2023-08-01T08:17:57;99015.16;;;20.28;88.95
30708;BME280;17458;48.958;8.284;2023-08-01T08:20:43;99029.66;;;20.16;89.28
30708;BME280;17458;48.958;8.284;2023-08-01T08:23:28;99037.59;;;20.33;88.36
30708;BME280;17458;48.958;8.284;2023-08-01T08:26:12;99013.38;;;20.27;88.65
30708;BME280;17458;48.958;8.284;2023-08-01T08:28:56;99020.91;;;19.92;91.12
30708;BME280;17458;48.958;8.284;2023-08-01T08:31:40;99016.47;;;19.86;90.71
30708;BME280;17458;48.958;8.284;2023-08-01T08:34:24;99024.50;;;19.91;92.75
30708;BME280;17458;48.958;8.284;2023-08-01T08:37:08;99053.19;;;19.95;90.67
30708;BME280;17458;48.958;8.284;2023-08-01T08:39:52;99064.50;;;20.39;87.09
30708;BME280;17458;48.958;8.284;2023-08-01T08:42:36;99066.06;;;20.63;86.85
30708;BME280;17458;48.958;8.284;2023-08-01T08:45:21;99062.09;;;20.92;86.24
30708;BME280;17458;48.958;8.284;2023-08-01T08:48:12;99067.06;;;21.30;84.27
30708;BME280;17458;48.958;8.284;2023-08-01T08:51:00;99060.78;;;21.28;84.76
30708;BME280;17458;48.958;8.284;2023-08-01T08:53:45;99062.41;;;21.39;83.81
30708;BME280;17458;48.958;8.284;2023-08-01T08:56:30;99065.50;;;21.09;83.71
30708;BME280;17458;48.958;8.284;2023-08-01T08:59:14;99069.84;;;21.22;83.56
30708;BME280;17458;48.958;8.284;2023-08-01T09:01:58;99073.22;;;21.38;83.54
30708;BME280;17458;48.958;8.284;2023-08-01T09:04:45;99075.50;;;21.68;80.86
30708;BME280;17458;48.958;8.284;2023-08-01T09:07:29;99071.72;;;21.78;79.50
30708;BME280;17458;48.958;8.284;2023-08-01T09:10:16;99081.75;;;21.72;79.79
30708;BME280;17458;48.958;8.284;2023-08-01T09:13:00;99084.97;;;21.97;77.53
30708;BME280;17458;48.958;8.284;2023-08-01T09:15:46;99083.31;;;21.88;76.55
30708;BME280;17458;48.958;8.284;2023-08-01T09:18:30;99080.59;;;21.88;78.80
30708;BME280;17458;48.958;8.284;2023-08-01T09:21:14;99085.59;;;22.15;78.74
30708;BME280;17458;48.958;8.284;2023-08-01T09:23:58;99098.91;;;22.78;76.65
30708;BME280;17458;48.958;8.284;2023-08-01T09:26:51;99096.22;;;22.77;79.16
30708;BME280;17458;48.958;8.284;2023-08-01T09:29:35;99105.00;;;22.89;73.27
30708;BME280;17458;48.958;8.284;2023-08-01T09:32:19;99103.66;;;23.12;71.47
30708;BME280;17458;48.958;8.284;2023-08-01T09:35:03;99103.81;;;23.03;71.20
30708;BME280;17458;48.958;8.284;2023-08-01T09:37:48;99102.84;;;23.51;71.74
30708;BME280;17458;48.958;8.284;2023-08-01T09:40:36;99120.34;;;23.33;68.18
30708;BME280;17458;48.958;8.284;2023-08-01T09:43:21;99117.09;;;23.59;68.28
30708;BME280;17458;48.958;8.284;2023-08-01T09:46:06;99119.81;;;23.99;68.02
30708;BME280;17458;48.958;8.284;2023-08-01T09:48:52;99126.47;;;24.23;65.85
30708;BME280;17458;48.958;8.284;2023-08-01T09:51:49;99112.13;;;24.54;64.90
30708;BME280;17458;48.958;8.284;2023-08-01T09:54:33;99120.50;;;24.08;66.62
30708;BME280;17458;48.958;8.284;2023-08-01T09:57:18;99126.31;;;24.65;66.31
30708;BME280;17458;48.958;8.284;2023-08-01T10:00:03;99122.06;;;24.55;62.90
30708;BME280;17458;48.958;8.284;2023-08-01T10:02:59;99124.88;;;24.84;63.53
30708;BME280;17458;48.958;8.284;2023-08-01T10:05:44;99121.13;;;25.22;61.01
30708;BME280;17458;48.958;8.284;2023-08-01T10:08:29;99129.06;;;25.28;60.03
30708;BME280;17458;48.958;8.284;2023-08-01T10:11:20;99130.09;;;24.58;59.06
30708;BME280;17458;48.958;8.284;2023-08-01T10:14:06;99133.81;;;25.22;61.44
30708;BME280;17458;48.958;8.284;2023-08-01T10:16:51;99136.53;;;25.53;59.65
30708;BME280;17458;48.958;8.284;2023-08-01T10:19:37;99139.06;;;25.28;57.62
30708;BME280;17458;48.958;8.284;2023-08-01T10:22:21;99146.78;;;24.77;59.59
30708;BME280;17458;48.958;8.284;2023-08-01T10:25:08;99159.91;;;25.58;56.47
30708;BME280;17458;48.958;8.284;2023-08-01T10:28:02;99151.47;;;25.38;57.57
30708;BME280;17458;48.958;8.284;2023-08-01T10:30:47;99165.13;;;24.68;56.59
30708;BME280;17458;48.958;8.284;2023-08-01T10:33:34;99155.50;;;25.23;56.17
30708;BME280;17458;48.958;8.284;2023-08-01T10:36:23;99154.41;;;25.29;57.12
30708;BME280;17458;48.958;8.284;2023-08-01T10:39:07;99152.41;;;25.37;55.06
30708;BME280;17458;48.958;8.284;2023-08-01T10:42:04;99155.72;;;26.07;53.83
30708;BME280;17458;48.958;8.284;2023-08-01T10:44:49;99156.25;;;25.90;53.17
30708;BME280;17458;48.958;8.284;2023-08-01T10:47:33;99162.88;;;25.82;52.31
30708;BME280;17458;48.958;8.284;2023-08-01T10:50:17;99155.19;;;25.34;53.38
30708;BME280;17458;48.958;8.284;2023-08-01T10:53:03;99164.16;;;25.37;53.83
30708;BME280;17458;48.958;8.284;2023-08-01T10:55:48;99162.03;;;25.16;54.65
30708;BME280;17458;48.958;8.284;2023-08-01T10:58:33;99170.06;;;24.87;53.49
30708;BME280;17458;48.958;8.284;2023-08-01T11:01:17;99168.63;;;23.99;56.80
30708;BME280;17458;48.958;8.284;2023-08-01T11:04:01;99176.09;;;24.64;55.68
30708;BME280;17458;48.958;8.284;2023-08-01T11:06:46;99181.16;;;24.78;54.56
30708;BME280;17458;48.958;8.284;2023-08-01T11:09:30;99173.53;;;24.92;52.24
30708;BME280;17458;48.958;8.284;2023-08-01T11:12:14;99181.06;;;25.16;53.43
30708;BME280;17458;48.958;8.284;2023-08-01T11:15:03;99175.38;;;24.91;50.88
30708;BME280;17458;48.958;8.284;2023-08-01T11:17:53;99185.78;;;24.74;50.90
30708;BME280;17458;48.958;8.284;2023-08-01T11:20:38;99179.03;;;24.56;50.88
30708;BME280;17458;48.958;8.284;2023-08-01T11:23:29;99182.34;;;24.30;49.88
30708;BME280;17458;48.958;8.284;2023-08-01T11:26:13;99182.19;;;24.38;50.49
30708;BME280;17458;48.958;8.284;2023-08-01T11:29:01;99183.25;;;23.91;52.35
30708;BME280;17458;48.958;8.284;2023-08-01T11:32:01;99188.41;;;24.01;51.73
30708;BME280;17458;48.958;8.284;2023-08-01T11:34:45;99181.00;;;23.71;53.25
30708;BME280;17458;48.958;8.284;2023-08-01T11:37:30;99178.19;;;24.87;50.96
30708;BME280;17458;48.958;8.284;2023-08-01T11:40:16;99174.72;;;25.48;51.02
30708;BME280;17458;48.958;8.284;2023-08-01T11:43:01;99178.09;;;25.25;49.05
30708;BME280;17458;48.958;8.284;2023-08-01T11:45:52;99186.16;;;25.59;50.30
30708;BME280;17458;48.958;8.284;2023-08-01T11:48:37;99184.81;;;25.75;48.54
30708;BME280;17458;48.958;8.284;2023-08-01T11:51:21;99196.41;;;26.39;47.49
30708;BME280;17458;48.958;8.284;2023-08-01T11:54:05;99171.94;;;25.82;47.17
30708;BME280;17458;48.958;8.284;2023-08-01T11:57:00;99191.81;;;26.41;45.61
30708;BME280;17458;48.958;8.284;2023-08-01T11:59:52;99185.41;;;25.85;46.00
30708;BME280;17458;48.958;8.284;2023-08-01T12:02:36;99190.72;;;25.90;46.15
30708;BME280;17458;48.958;8.284;2023-08-01T12:05:22;99196.19;;;25.57;45.75
30708;BME280;17458;48.958;8.284;2023-08-01T12:08:13;99193.97;;;25.71;46.63
30708;BME280;17458;48.958;8.284;2023-08-01T12:10:57;99185.34;;;25.56;47.07
30708;BME280;17458;48.958;8.284;2023-08-01T12:13:41;99194.09;;;25.68;46.41
30708;BME280;17458;48.958;8.284;2023-08-01T12:16:25;99191.72;;;25.55;45.49
30708;BME280;17458;48.958;8.284;2023-08-01T12:19:09;99185.38;;;24.89;46.29
30708;BME280;17458;48.958;8.284;2023-08-01T12:21:53;99193.41;;;25.59;46.52
30708;BME280;17458;48.958;8.284;2023-08-01T12:24:37;99171.09;;;26.08;44.02
30708;BME280;17458;48.958;8.284;2023-08-01T12:27:21;99180.25;;;25.76;46.05
30708;BME280;17458;48.958;8.284;2023-08-01T12:30:06;99181.16;;;25.76;47.58
30708;BME280;17458;48.958;8.284;2023-08-01T12:32:50;99185.47;;;26.11;46.27
30708;BME280;17458;48.958;8.284;2023-08-01T12:35:34;99184.75;;;25.77;44.34
30708;BME280;17458;48.958;8.284;2023-08-01T12:38:18;99187.13;;;26.73;44.50
30708;BME280;17458;48.958;8.284;2023-08-01T12:41:02;99191.31;;;26.27;44.39
30708;BME280;17458;48.958;8.284;2023-08-01T12:43:46;99182.84;;;26.10;44.70
30708;BME280;17458;48.958;8.284;2023-08-01T12:46:30;99179.25;;;26.37;45.09
30708;BME280;17458;48.958;8.284;2023-08-01T12:49:14;99186.16;;;25.90;44.28
30708;BME280;17458;48.958;8.284;2023-08-01T12:51:58;99192.56;;;25.57;43.69
30708;BME280;17458;48.958;8.284;2023-08-01T12:54:42;99191.19;;;25.74;43.77
30708;BME280;17458;48.958;8.284;2023-08-01T12:57:26;99187.31;;;26.11;43.64
30708;BME280;17458;48.958;8.284;2023-08-01T13:00:10;99188.53;;;25.71;43.53
30708;BME280;17458;48.958;8.284;2023-08-01T13:02:54;99192.44;;;25.92;43.98
30708;BME280;17458;48.958;8.284;2023-08-01T13:05:39;99184.00;;;26.31;43.79
30708;BME280;17458;48.958;8.284;2023-08-01T13:08:24;99179.72;;;26.22;42.39
30708;BME280;17458;48.958;8.284;2023-08-01T13:11:14;99185.53;;;26.39;44.14
30708;BME280;17458;48.958;8.284;2023-08-01T13:13:59;99178.72;;;25.97;43.41
30708;BME280;17458;48.958;8.284;2023-08-01T13:16:43;99181.22;;;26.60;44.54
30708;BME280;17458;48.958;8.284;2023-08-01T13:19:27;99190.41;;;26.56;43.95
30708;BME280;17458;48.958;8.284;2023-08-01T13:22:11;99173.97;;;26.03;43.20
30708;BME280;17458;48.958;8.284;2023-08-01T13:24:55;99182.00;;;26.08;43.01
30708;BME280;17458;48.958;8.284;2023-08-01T13:27:39;99189.31;;;25.76;43.56
30708;BME280;17458;48.958;8.284;2023-08-01T13:30:23;99183.44;;;26.20;44.01
30708;BME280;17458;48.958;8.284;2023-08-01T13:33:07;99179.00;;;26.45;41.95
30708;BME280;17458;48.958;8.284;2023-08-01T13:35:52;99184.41;;;26.73;42.80
30708;BME280;17458;48.958;8.284;2023-08-01T13:38:37;99191.00;;;26.92;42.70
30708;BME280;17458;48.958;8.284;2023-08-01T13:41:21;99186.03;;;26.78;41.72
30708;BME280;17458;48.958;8.284;2023-08-01T13:44:05;99186.00;;;27.06;42.68
30708;BME280;17458;48.958;8.284;2023-08-01T13:46:49;99179.25;;;27.41;41.85
30708;BME280;17458;48.958;8.284;2023-08-01T13:49:33;99185.72;;;27.39;42.36
30708;BME280;17458;48.958;8.284;2023-08-01T13:52:16;99185.00;;;27.59;41.56
30708;BME280;17458;48.958;8.284;2023-08-01T13:55:00;99186.50;;;27.67;42.56
30708;BME280;17458;48.958;8.284;2023-08-01T13:57:46;99187.09;;;27.99;40.70
30708;BME280;17458;48.958;8.284;2023-08-01T14:00:31;99188.31;;;27.42;41.25
30708;BME280;17458;48.958;8.284;2023-08-01T14:03:15;99182.59;;;27.74;40.25
30708;BME280;17458;48.958;8.284;2023-08-01T14:06:17;99177.97;;;27.27;39.19
30708;BME280;17458;48.958;8.284;2023-08-01T14:09:02;99171.28;;;27.37;39.73
30708;BME280;17458;48.958;8.284;2023-08-01T14:11:46;99179.88;;;27.25;39.48
30708;BME280;17458;48.958;8.284;2023-08-01T14:14:30;99191.72;;;27.48;39.10
30708;BME280;17458;48.958;8.284;2023-08-01T14:17:14;99200.16;;;27.91;39.81
30708;BME280;17458;48.958;8.284;2023-08-01T14:19:58;99186.84;;;27.58;41.81
30708;BME280;17458;48.958;8.284;2023-08-01T14:22:43;99190.41;;;27.60;41.07
30708;BME280;17458;48.958;8.284;2023-08-01T14:25:27;99204.78;;;27.65;40.32
30708;BME280;17458;48.958;8.284;2023-08-01T14:28:11;99204.88;;;27.62;40.36
30708;BME280;17458;48.958;8.284;2023-08-01T14:30:55;99208.66;;;27.81;41.76
30708;BME280;17458;48.958;8.284;2023-08-01T14:33:39;99206.06;;;27.53;40.97